^^
Grace C. Lehan Memorial Weather Station Historical Data
Daily Summary for April 14, 2021 Units:  Metric    English   Both
Daily Weekly Monthly Yearly
  High: Low: Average:
Temperature: 25.7 °C 6.4 °C 18.6 °C
Dew Point: 9.7 °C 3.7 °C 5.8 °C
Humidity: 87% 25.2% 47%
Wind Speed: 13.4km/h 0km/h 0.3km/h
Wind Gust: 32.2km/h - -
Wind- - South
Pressure: 1022.6 hPa 1018.5 hPa -
Precipitation: 0 mm    
 
 
Tabular Data for April 14, 2021
Time Temperature Dew Point Pressure Wind Wind Speed Wind Gust Humidity Rainfall Rate (Hourly) solar
00:04 11.4 °C 3.7 °C 1020.5 hPa Calm     59% 0 mm 0 W/m2
00:09 11.4 °C 3.8 °C 1020.5 hPa Calm     59.7% 0 mm 0 W/m2
00:14 11.3 °C 3.9 °C 1020.5 hPa Calm     60.2% 0 mm 0 W/m2
00:19 11.3 °C 4.2 °C 1020.5 hPa Calm     61.8% 0 mm 0 W/m2
00:24 11.2 °C 4.3 °C 1020.5 hPa Calm     62.3% 0 mm 0 W/m2
00:29 11.1 °C 4.4 °C 1020.5 hPa Calm     63.4% 0 mm 0 W/m2
00:34 10.9 °C 4.4 °C 1020.5 hPa Calm     64% 0 mm 0 W/m2
00:39 10.8 °C 4.4 °C 1020.5 hPa Calm     64.9% 0 mm 0 W/m2
00:44 10.7 °C 4.4 °C 1020.9 hPa Calm     65% 0 mm 0 W/m2
00:49 10.5 °C 4.2 °C 1020.9 hPa Calm     65% 0 mm 0 W/m2
00:54 10.4 °C 4.2 °C 1020.9 hPa Calm     65.4% 0 mm 0 W/m2
00:59 10.3 °C 4.2 °C 1020.9 hPa NW 0.2 km/h 3.2 km/h 66.2% 0 mm 0 W/m2
01:04 10.1 °C 4.4 °C 1020.9 hPa NW 0.3 km/h 3.2 km/h 67.7% 0 mm 0 W/m2
01:09 9.9 °C 4.5 °C 1020.9 hPa Calm   3.2 km/h 69% 0 mm 0 W/m2
01:14 9.7 °C 4.3 °C 1020.9 hPa Calm   3.2 km/h 69% 0 mm 0 W/m2
01:19 9.6 °C 4.2 °C 1020.9 hPa Calm   3.2 km/h 69.4% 0 mm 0 W/m2
01:24 9.4 °C 4.3 °C 1020.9 hPa NW 0.5 km/h 4.8 km/h 70.6% 0 mm 0 W/m2
01:29 9.3 °C 4.3 °C 1020.9 hPa Calm   4.8 km/h 71% 0 mm 0 W/m2
01:34 9.2 °C 4.3 °C 1020.9 hPa Calm   4.8 km/h 71.6% 0 mm 0 W/m2
01:39 9.1 °C 4.3 °C 1020.9 hPa Calm     72.2% 0 mm 0 W/m2
01:44 8.9 °C 4.4 °C 1020.5 hPa Calm     73% 0 mm 0 W/m2
01:49 8.8 °C 4.3 °C 1020.5 hPa Calm   1.6 km/h 73.4% 0 mm 0 W/m2
01:54 8.8 °C 4.4 °C 1020.5 hPa Calm   1.6 km/h 74% 0 mm 0 W/m2
01:59 8.7 °C 4.4 °C 1020.5 hPa Calm   1.6 km/h 74% 0 mm 0 W/m2
02:04 8.7 °C 4.3 °C 1020.5 hPa Calm   1.6 km/h 74% 0 mm 0 W/m2
02:09 8.7 °C 4.3 °C 1020.5 hPa Calm     74% 0 mm 0 W/m2
02:14 8.6 °C 4.3 °C 1020.5 hPa Calm     74% 0 mm 0 W/m2
02:19 8.6 °C 4.4 °C 1020.5 hPa Calm     75% 0 mm 0 W/m2
02:24 8.6 °C 4.4 °C 1020.5 hPa Calm     75% 0 mm 0 W/m2
02:29 8.5 °C 4.3 °C 1020.5 hPa Calm     75% 0 mm 0 W/m2
02:34 8.5 °C 4.3 °C 1020.5 hPa Calm     75% 0 mm 0 W/m2
02:39 8.4 °C 4.4 °C 1020.5 hPa Calm     75.8% 0 mm 0 W/m2
02:44 8.3 °C 4.4 °C 1020.5 hPa Calm     76% 0 mm 0 W/m2
02:49 8.3 °C 4.3 °C 1020.5 hPa Calm     76% 0 mm 0 W/m2
02:54 8.2 °C 4.3 °C 1020.5 hPa Calm     76.5% 0 mm 0 W/m2
02:59 8.1 °C 4.3 °C 1020.5 hPa Calm     77% 0 mm 0 W/m2
03:04 8 °C 4.3 °C 1020.5 hPa Calm     77.3% 0 mm 0 W/m2
03:09 7.9 °C 4.3 °C 1020.5 hPa Calm     78% 0 mm 0 W/m2
03:14 7.8 °C 4.2 °C 1020.5 hPa Calm     78% 0 mm 0 W/m2
03:17 7.8 °C 4.2 °C 1020.9 hPa Calm     78.1% 0 mm 0 W/m2
03:30 7.6 °C 4.2 °C 1020.9 hPa Calm     79% 0 mm 0 W/m2
04:04 7.2 °C 4.3 °C 1020.9 hPa Calm     82% 0 mm 0 W/m2
04:09 7.1 °C 4.3 °C 1020.9 hPa Calm     82% 0 mm 0 W/m2
04:14 7.1 °C 4.2 °C 1020.9 hPa Calm     82% 0 mm 0 W/m2
04:19 7 °C 4.1 °C 1020.9 hPa Calm     82% 0 mm 0 W/m2
04:24 6.9 °C 4.1 °C 1020.9 hPa Calm     82.3% 0 mm 0 W/m2
04:29 6.9 °C 4.2 °C 1020.9 hPa Calm     83% 0 mm 0 W/m2
04:34 6.8 °C 4.2 °C 1020.9 hPa Calm     83.2% 0 mm 0 W/m2
04:39 6.8 °C 4.3 °C 1021.2 hPa Calm     84% 0 mm 0 W/m2
04:44 6.8 °C 4.4 °C 1021.2 hPa Calm     85% 0 mm 0 W/m2
04:49 6.7 °C 4.4 °C 1021.2 hPa Calm     85% 0 mm 0 W/m2
04:54 6.7 °C 4.5 °C 1021.2 hPa Calm     85.6% 0 mm 0 W/m2
04:59 6.7 °C 4.6 °C 1021.2 hPa Calm     86% 0 mm 0 W/m2
05:00 6.7 °C 4.6 °C 1021.2 hPa Calm     86% 0 mm 0 W/m2
05:30 6.6 °C 4.3 °C 1021.2 hPa Calm     85% 0 mm 0 W/m2
06:00 6.4 °C 4.2 °C 1021.6 hPa Calm     86% 0 mm 9 W/m2
06:30 6.7 °C 4.7 °C 1021.9 hPa Calm     87% 0 mm 34 W/m2
07:00 9.1 °C 6.2 °C 1022.2 hPa Calm     82% 0 mm 130 W/m2
07:30 12 °C 7.1 °C 1022.2 hPa Calm     72% 0 mm 282 W/m2
08:04 14.1 °C 7.1 °C 1022.6 hPa Calm     62.5% 0 mm 452 W/m2
08:09 14.4 °C 7.3 °C 1022.6 hPa Calm   1.6 km/h 62.5% 0 mm 469 W/m2
08:14 14.9 °C 7.3 °C 1022.2 hPa Calm   1.6 km/h 60.6% 0 mm 487 W/m2
08:19 15.3 °C 7.7 °C 1022.2 hPa Calm   1.6 km/h 60.5% 0 mm 503 W/m2
08:24 15.8 °C 7.9 °C 1022.2 hPa Calm   1.6 km/h 59.4% 0 mm 520 W/m2
08:29 16.2 °C 8 °C 1022.2 hPa Calm   1.6 km/h 58.3% 0 mm 534 W/m2
08:34 16.5 °C 7.9 °C 1022.6 hPa Calm   1.6 km/h 56.9% 0 mm 552 W/m2
08:39 16.8 °C 8.2 °C 1022.6 hPa Calm     56.8% 0 mm 568 W/m2
08:44 17.4 °C 8.8 °C 1022.6 hPa Calm     56.9% 0 mm 584 W/m2
08:49 17.8 °C 8.2 °C 1022.6 hPa Calm   1.6 km/h 53.3% 0 mm 601 W/m2
08:54 18.1 °C 8.3 °C 1022.6 hPa Calm   1.6 km/h 52.6% 0 mm 615 W/m2
08:59 18.4 °C 8.1 °C 1022.2 hPa Calm   1.6 km/h 51% 0 mm 629 W/m2
09:04 18.8 °C 8.7 °C 1022.2 hPa Calm   1.6 km/h 51.8% 0 mm 645 W/m2
09:09 19.2 °C 8.7 °C 1022.2 hPa Calm     50.4% 0 mm 659 W/m2
09:14 19.6 °C 8.9 °C 1022.2 hPa Calm   1.6 km/h 50% 0 mm 675 W/m2
09:19 19.9 °C 8.7 °C 1022.2 hPa Calm   1.6 km/h 48.2% 0 mm 691 W/m2
09:24 20.1 °C 8.6 °C 1022.2 hPa Calm   1.6 km/h 47.6% 0 mm 705 W/m2
09:29 20.3 °C 9.5 °C 1022.2 hPa Calm   1.6 km/h 49.9% 0 mm 719 W/m2
09:34 20.7 °C 9.4 °C 1022.2 hPa Calm   1.6 km/h 48.3% 0 mm 729 W/m2
09:39 21.1 °C 9.3 °C 1021.9 hPa Calm   1.6 km/h 47.1% 0 mm 744 W/m2
09:44 21.4 °C 9.2 °C 1021.9 hPa Calm   1.6 km/h 45.6% 0 mm 756 W/m2
09:49 21.8 °C 9.7 °C 1021.9 hPa NNW 0.2 km/h 3.2 km/h 45.9% 0 mm 770 W/m2
09:54 22.2 °C 9.6 °C 1021.9 hPa Calm   3.2 km/h 44.5% 0 mm 782 W/m2
09:59 22.5 °C 9.4 °C 1021.9 hPa Calm   3.2 km/h 43.3% 0 mm 795 W/m2
10:04 22.6 °C 8.4 °C 1021.9 hPa Calm   3.2 km/h 40.2% 0 mm 803 W/m2
10:09 22.7 °C 9.6 °C 1021.9 hPa Calm     43.5% 0 mm 819 W/m2
10:14 22.8 °C 9.6 °C 1021.9 hPa NNW 0.2 km/h 3.2 km/h 42.8% 0 mm 823 W/m2
10:19 23.1 °C 9.4 °C 1021.9 hPa North 0.3 km/h 3.2 km/h 41.8% 0 mm 835 W/m2
10:24 23.6 °C 9.5 °C 1021.9 hPa North 0.3 km/h 3.2 km/h 40.9% 0 mm 846 W/m2
10:29 23.7 °C 9.3 °C 1021.9 hPa North 0.8 km/h 4.8 km/h 39.8% 0 mm 858 W/m2
10:34 24 °C 8.9 °C 1021.9 hPa Calm   4.8 km/h 38.4% 0 mm 868 W/m2
10:39 24.1 °C 8.8 °C 1021.9 hPa Calm   1.6 km/h 37.8% 0 mm 877 W/m2
10:44 24.4 °C 8.8 °C 1021.6 hPa NNE 0.3 km/h 3.2 km/h 37.3% 0 mm 884 W/m2
10:49 24.4 °C 7.8 °C 1021.6 hPa NNE 0.5 km/h 3.2 km/h 34.7% 0 mm 891 W/m2
10:54 24.4 °C 8.3 °C 1021.6 hPa NNE 1.4 km/h 6.4 km/h 35.8% 0 mm 902 W/m2
10:59 24.3 °C 7.6 °C 1021.6 hPa NE 0.8 km/h 6.4 km/h 34.1% 0 mm 914 W/m2
11:04 24.2 °C 7 °C 1021.6 hPa Calm   6.4 km/h 33.3% 0 mm 919 W/m2
11:09 24.2 °C 7.7 °C 1021.6 hPa NE 0.6 km/h 6.4 km/h 34.9% 0 mm 926 W/m2
11:14 24.3 °C 7.5 °C 1021.6 hPa NE 1.6 km/h 8 km/h 34.1% 0 mm 928 W/m2
11:19 24.4 °C 8.1 °C 1021.6 hPa East 1.9 km/h 8 km/h 35.3% 0 mm 944 W/m2
11:24 24.7 °C 8 °C 1021.6 hPa East 2.3 km/h 11.3 km/h 34.5% 0 mm 972 W/m2
11:29 24.7 °C 7.3 °C 1021.6 hPa ENE 0.3 km/h 11.3 km/h 32.9% 0 mm 1007 W/m2
11:34 24.8 °C 7.5 °C 1021.2 hPa ENE 1.1 km/h 11.3 km/h 33.2% 0 mm 1007 W/m2
11:39 24.8 °C 7.4 °C 1021.2 hPa ENE 2.9 km/h 11.3 km/h 33.1% 0 mm 1002 W/m2
11:44 25 °C 7 °C 1021.2 hPa ENE 4.3 km/h 11.3 km/h 31.7% 0 mm 984 W/m2
11:49 24.9 °C 7 °C 1021.2 hPa ENE 1.4 km/h 11.3 km/h 31.7% 0 mm 993 W/m2
11:54 24.9 °C 7.9 °C 1021.2 hPa ENE 0.5 km/h 11.3 km/h 33.8% 0 mm 1004 W/m2
11:59 25.1 °C 7.5 °C 1021.2 hPa Calm   11.3 km/h 32.4% 0 mm 1055 W/m2
12:04 25.6 °C 7.2 °C 1020.9 hPa Calm     31% 0 mm 1069 W/m2
12:09 25.6 °C 7.6 °C 1020.9 hPa ENE 0.6 km/h 4.8 km/h 31.9% 0 mm 1069 W/m2
12:14 25.6 °C 7.9 °C 1020.9 hPa ENE 0.2 km/h 4.8 km/h 32.5% 0 mm 1065 W/m2
12:19 25.4 °C 6.6 °C 1020.9 hPa ENE 0.2 km/h 4.8 km/h 30% 0 mm 1106 W/m2
12:24 25.3 °C 8.5 °C 1020.9 hPa Calm   4.8 km/h 34.4% 0 mm 1083 W/m2
12:29 25.4 °C 7.2 °C 1020.9 hPa NW 1.3 km/h 8 km/h 31.3% 0 mm 1083 W/m2
12:34 25.4 °C 6.7 °C 1020.5 hPa Calm   8 km/h 30.3% 0 mm 1049 W/m2
12:39 25.6 °C 8.3 °C 1020.5 hPa Calm   3.2 km/h 33.3% 0 mm 1095 W/m2
12:44 25.7 °C 7.1 °C 1020.5 hPa North 0.6 km/h 8 km/h 30.5% 0 mm 1109 W/m2
12:49 25.5 °C 6.6 °C 1020.5 hPa Calm   8 km/h 29.9% 0 mm 156 W/m2
12:54 25.1 °C 6.4 °C 1020.5 hPa NE 1.1 km/h 9.7 km/h 30.2% 0 mm 773 W/m2
12:59 24.7 °C 6.1 °C 1020.5 hPa ENE 2.1 km/h 9.7 km/h 30.2% 0 mm 1048 W/m2
13:04 24.6 °C 6.6 °C 1020.2 hPa Calm   9.7 km/h 31.5% 0 mm 1069 W/m2
13:09 24.7 °C 7 °C 1020.2 hPa North 1 km/h 6.4 km/h 32.3% 0 mm 1069 W/m2
13:14 24.9 °C 6.5 °C 1020.2 hPa NE 3.9 km/h 9.7 km/h 30.8% 0 mm 1020 W/m2
13:19 25.1 °C 5.7 °C 1020.2 hPa NNE 0.8 km/h 9.7 km/h 28.7% 0 mm 1065 W/m2
13:24 25.1 °C 4.7 °C 1020.2 hPa NNE 0.5 km/h 9.7 km/h 26.7% 0 mm 1030 W/m2
13:29 25.1 °C 5.6 °C 1020.2 hPa Calm   9.7 km/h 28.7% 0 mm 1049 W/m2
13:34 25.1 °C 6.7 °C 1020.2 hPa WNW 1.4 km/h 9.7 km/h 30.8% 0 mm 1071 W/m2
13:39 25.3 °C 5.7 °C 1019.9 hPa WNW 6.8 km/h 16.1 km/h 28.4% 0 mm 1106 W/m2
13:44 25.5 °C 5.2 °C 1019.9 hPa WNW 8.2 km/h 17.7 km/h 27.1% 0 mm 1113 W/m2
13:49 25.6 °C 4.6 °C 1019.9 hPa NW 0.8 km/h 17.7 km/h 25.9% 0 mm 1132 W/m2
13:54 25.5 °C 5.2 °C 1019.9 hPa NNE 1.4 km/h 17.7 km/h 27.1% 0 mm 1130 W/m2
13:59 25.4 °C 4.1 °C 1019.9 hPa East 2.7 km/h 17.7 km/h 25.2% 0 mm 1099 W/m2
14:04 25.4 °C 5.3 °C 1019.5 hPa NNE 1.6 km/h 17.7 km/h 27.4% 0 mm 1097 W/m2
14:09 25.4 °C 5.5 °C 1019.5 hPa North 1.6 km/h 8 km/h 27.9% 0 mm 1113 W/m2
14:14 25.4 °C 5.2 °C 1019.5 hPa WNW 0.6 km/h 8 km/h 27.4% 0 mm 1086 W/m2
14:19 25.4 °C 5.4 °C 1019.5 hPa WNW 2.9 km/h 9.7 km/h 27.7% 0 mm 309 W/m2
14:24 25.3 °C 4.9 °C 1019.5 hPa NW 0.2 km/h 9.7 km/h 26.9% 0 mm 292 W/m2
14:29 25.1 °C 4.6 °C 1019.5 hPa NE 1.3 km/h 9.7 km/h 26.5% 0 mm 237 W/m2
14:34 24.9 °C 4.1 °C 1019.5 hPa ENE 0.2 km/h 9.7 km/h 25.8% 0 mm 281 W/m2
14:39 24.9 °C 4.7 °C 1019.5 hPa North 1.3 km/h 8 km/h 27.1% 0 mm 239 W/m2
14:44 24.8 °C 5.2 °C 1019.5 hPa NNW 0.2 km/h 8 km/h 28.2% 0 mm 202 W/m2
14:49 24.7 °C 4.5 °C 1019.5 hPa Calm   8 km/h 27.2% 0 mm 214 W/m2
14:54 24.4 °C 4.2 °C 1019.5 hPa Calm   8 km/h 26.9% 0 mm 234 W/m2
14:59 24.3 °C 4.9 °C 1019.2 hPa NNW 0.2 km/h 8 km/h 28.5% 0 mm 241 W/m2
15:04 24.2 °C 4.2 °C 1019.2 hPa North 0.2 km/h 8 km/h 27.2% 0 mm 236 W/m2
15:09 24.2 °C 4.3 °C 1019.2 hPa North 0.5 km/h 3.2 km/h 27.5% 0 mm 186 W/m2
15:14 24.2 °C 5.3 °C 1019.2 hPa Calm   3.2 km/h 29.5% 0 mm 158 W/m2
15:19 24.2 °C 5.8 °C 1019.2 hPa Calm   3.2 km/h 30.7% 0 mm 144 W/m2
15:24 24.2 °C 5.8 °C 1019.2 hPa Calm   3.2 km/h 30.6% 0 mm 139 W/m2
15:29 24.1 °C 4.4 °C 1019.2 hPa Calm   3.2 km/h 28% 0 mm 130 W/m2
15:34 24 °C 4.9 °C 1019.2 hPa Calm   3.2 km/h 29.2% 0 mm 130 W/m2
15:39 23.9 °C 4.6 °C 1018.8 hPa NE 0.5 km/h 3.2 km/h 28.5% 0 mm 125 W/m2
15:44 23.7 °C 4.1 °C 1018.8 hPa Calm   3.2 km/h 27.9% 0 mm 134 W/m2
15:49 23.6 °C 4.6 °C 1018.8 hPa Calm   3.2 km/h 29.2% 0 mm 163 W/m2
15:54 23.5 °C 5.1 °C 1018.8 hPa Calm   3.2 km/h 30.3% 0 mm 178 W/m2
15:59 23.4 °C 4.9 °C 1018.8 hPa Calm   3.2 km/h 30.1% 0 mm 174 W/m2
16:00 23.4 °C 4.3 °C 1018.8 hPa Calm   3.2 km/h 29% 0 mm 153 W/m2
16:09 23.4 °C 3.8 °C 1018.8 hPa ENE 0.3 km/h 6.4 km/h 27.8% 0 mm 139 W/m2
16:14 23.5 °C 4.6 °C 1018.8 hPa Calm   6.4 km/h 29.4% 0 mm 132 W/m2
16:19 23.6 °C 4.5 °C 1018.8 hPa Calm   6.4 km/h 29% 0 mm 151 W/m2
16:24 23.6 °C 4.4 °C 1018.5 hPa ENE 0.3 km/h 6.4 km/h 28.9% 0 mm 169 W/m2
16:29 23.6 °C 4.1 °C 1018.5 hPa ENE 0.3 km/h 6.4 km/h 28.1% 0 mm 185 W/m2
16:34 23.6 °C 3.9 °C 1018.5 hPa Calm   6.4 km/h 27.8% 0 mm 188 W/m2
16:39 23.6 °C 3.9 °C 1018.5 hPa Calm   1.6 km/h 27.8% 0 mm 207 W/m2
16:44 23.6 °C 3.7 °C 1018.5 hPa Calm   1.6 km/h 27.3% 0 mm 200 W/m2
16:49 23.7 °C 4.7 °C 1018.5 hPa Calm   1.6 km/h 29.2% 0 mm 178 W/m2
16:54 23.7 °C 4.4 °C 1018.5 hPa Calm   1.6 km/h 28.7% 0 mm 142 W/m2
16:59 23.6 °C 5 °C 1018.5 hPa ENE 0.3 km/h 3.2 km/h 29.9% 0 mm 104 W/m2
17:04 23.4 °C 4.9 °C 1018.5 hPa ENE 0.2 km/h 3.2 km/h 30% 0 mm 91 W/m2
17:09 23.2 °C 5 °C 1018.5 hPa Calm   3.2 km/h 30.6% 0 mm 91 W/m2
17:14 23.1 °C 5.2 °C 1018.5 hPa Calm   3.2 km/h 31.2% 0 mm 86 W/m2
17:19 22.9 °C 5.2 °C 1018.5 hPa Calm   3.2 km/h 31.7% 0 mm 83 W/m2
17:24 22.8 °C 5.1 °C 1018.5 hPa Calm   3.2 km/h 31.6% 0 mm 67 W/m2
17:29 22.7 °C 5.1 °C 1018.5 hPa Calm   3.2 km/h 31.8% 0 mm 62 W/m2
17:34 22.6 °C 5.4 °C 1018.5 hPa Calm   3.2 km/h 32.7% 0 mm 60 W/m2
17:39 22.5 °C 5.3 °C 1018.5 hPa Calm     32.7% 0 mm 56 W/m2
17:44 22.4 °C 5.6 °C 1018.5 hPa Calm     33.5% 0 mm 56 W/m2
17:49 22.4 °C 6 °C 1018.5 hPa Calm     34.5% 0 mm 54 W/m2
17:54 22.3 °C 5.9 °C 1018.5 hPa Calm     34.6% 0 mm 58 W/m2
17:59 22.2 °C 5.6 °C 1018.5 hPa Calm   1.6 km/h 33.9% 0 mm 60 W/m2
18:04 22.2 °C 5.4 °C 1018.5 hPa Calm   1.6 km/h 33.7% 0 mm 60 W/m2
18:09 22.1 °C 5.6 °C 1018.8 hPa Calm     34.2% 0 mm 53 W/m2
18:14 22.1 °C 5.2 °C 1018.8 hPa Calm     33.3% 0 mm 44 W/m2
18:19 22 °C 5.1 °C 1018.5 hPa Calm     33.2% 0 mm 44 W/m2
18:24 21.9 °C 5.2 °C 1018.5 hPa Calm     33.5% 0 mm 46 W/m2
18:29 21.9 °C 5.4 °C 1018.5 hPa Calm     34.1% 0 mm 46 W/m2
18:34 21.8 °C 5.6 °C 1018.5 hPa Calm     34.6% 0 mm 42 W/m2
18:39 21.8 °C 5.6 °C 1018.8 hPa Calm     34.8% 0 mm 40 W/m2
18:44 21.8 °C 5.7 °C 1018.8 hPa Calm     35% 0 mm 39 W/m2
18:49 21.7 °C 5.8 °C 1018.8 hPa ENE 0.8 km/h 4.8 km/h 35.4% 0 mm 39 W/m2
18:54 21.7 °C 6.3 °C 1018.8 hPa Calm   4.8 km/h 36.8% 0 mm 37 W/m2
18:59 21.6 °C 6.3 °C 1018.8 hPa SSE 1.3 km/h 8 km/h 37% 0 mm 33 W/m2
19:04 21.4 °C 5.6 °C 1018.8 hPa West 2.7 km/h 16.1 km/h 35.6% 0 mm 37 W/m2
19:09 21.4 °C 4.6 °C 1019.2 hPa WNW 13.4 km/h 32.2 km/h 33.2% 0 mm 39 W/m2
19:14 21.5 °C 4.3 °C 1019.2 hPa WNW 8.7 km/h 32.2 km/h 32.5% 0 mm 42 W/m2
19:19 21.6 °C 4.6 °C 1018.8 hPa WSW 0.6 km/h 32.2 km/h 32.8% 0 mm 44 W/m2
19:24 21.6 °C 4.8 °C 1018.8 hPa WNW 0.8 km/h 32.2 km/h 33.4% 0 mm 47 W/m2
19:29 21.6 °C 4.3 °C 1018.8 hPa NW 0.3 km/h 32.2 km/h 32.3% 0 mm 47 W/m2
19:34 21.6 °C 4.5 °C 1018.8 hPa Calm   32.2 km/h 32.7% 0 mm 44 W/m2
19:39 21.6 °C 4.4 °C 1019.2 hPa NW 0.6 km/h 6.4 km/h 32.6% 0 mm 35 W/m2
19:44 21.6 °C 3.7 °C 1019.2 hPa NW 0.5 km/h 6.4 km/h 31% 0 mm 23 W/m2
19:49 21.6 °C 3.7 °C 1019.2 hPa NW 0.2 km/h 6.4 km/h 31% 0 mm 14 W/m2
19:54 21.5 °C 3.7 °C 1019.2 hPa NW 0.2 km/h 6.4 km/h 31% 0 mm 7 W/m2
19:59 21.4 °C 4.1 °C 1019.2 hPa NW 0.3 km/h 6.4 km/h 32% 0 mm 5 W/m2
20:00 21.4 °C 4.1 °C 1019.2 hPa Calm   6.4 km/h 32% 0 mm 0 W/m2
20:09 21.2 °C 4.2 °C 1019.2 hPa Calm     32.7% 0 mm 0 W/m2
20:14 21 °C 4.2 °C 1019.5 hPa Calm     33.1% 0 mm 0 W/m2
20:19 20.8 °C 4.5 °C 1019.5 hPa Calm     34.3% 0 mm 0 W/m2
20:24 20.6 °C 4.6 °C 1019.5 hPa Calm     35% 0 mm 0 W/m2
20:29 20.3 °C 4.4 °C 1019.5 hPa Calm     35% 0 mm 0 W/m2
20:34 20.1 °C 4.7 °C 1019.5 hPa Calm     36.2% 0 mm 0 W/m2
20:39 19.8 °C 4.6 °C 1019.5 hPa Calm     36.7% 0 mm 0 W/m2
20:44 19.4 °C 4.6 °C 1019.9 hPa Calm     37.5% 0 mm 0 W/m2
20:49 19.2 °C 4.4 °C 1019.9 hPa Calm     37.8% 0 mm 0 W/m2
20:54 18.9 °C 4.3 °C 1019.9 hPa Calm     38% 0 mm 0 W/m2
20:59 18.8 °C 4.6 °C 1019.9 hPa Calm     39.1% 0 mm 0 W/m2
21:04 18.6 °C 5.1 °C 1019.9 hPa Calm     40.9% 0 mm 0 W/m2
21:09 18.4 °C 5.3 °C 1020.2 hPa Calm   1.6 km/h 42% 0 mm 0 W/m2
21:14 18.4 °C 5.7 °C 1020.2 hPa Calm   1.6 km/h 43.3% 0 mm 0 W/m2
21:19 18.3 °C 5.8 °C 1020.2 hPa Calm   1.6 km/h 44% 0 mm 0 W/m2
21:24 18.2 °C 5.8 °C 1020.2 hPa Calm   1.6 km/h 44.2% 0 mm 0 W/m2
21:29 18.1 °C 5.7 °C 1020.2 hPa Calm   1.6 km/h 44.1% 0 mm 0 W/m2
21:34 18 °C 5.7 °C 1020.5 hPa Calm   1.6 km/h 44.2% 0 mm 0 W/m2
21:39 18 °C 5.8 °C 1020.5 hPa Calm     44.7% 0 mm 0 W/m2
21:44 17.9 °C 6 °C 1020.5 hPa Calm     45.5% 0 mm 0 W/m2
21:49 17.9 °C 6.3 °C 1020.5 hPa Calm     46.7% 0 mm 0 W/m2
21:54 17.7 °C 6.5 °C 1020.5 hPa Calm     47.6% 0 mm 0 W/m2
21:59 17.6 °C 6.6 °C 1020.5 hPa Calm     48.6% 0 mm 0 W/m2
22:04 17.4 °C 6.7 °C 1020.5 hPa Calm     49.6% 0 mm 0 W/m2
22:09 17.2 °C 6.7 °C 1020.5 hPa Calm     50% 0 mm 0 W/m2
22:14 17.1 °C 6.6 °C 1020.5 hPa Calm     49.8% 0 mm 0 W/m2
22:19 17.1 °C 6.3 °C 1020.5 hPa Calm     49.3% 0 mm 0 W/m2
22:24 16.9 °C 6.3 °C 1020.5 hPa Calm     49.3% 0 mm 0 W/m2
22:29 16.9 °C 6.1 °C 1020.5 hPa Calm     48.7% 0 mm 0 W/m2
22:34 16.9 °C 6 °C 1020.5 hPa Calm     48.6% 0 mm 0 W/m2
22:39 16.8 °C 6.1 °C 1020.5 hPa Calm     49.2% 0 mm 0 W/m2
22:44 16.8 °C 6.2 °C 1020.5 hPa Calm     49.6% 0 mm 0 W/m2
22:49 16.8 °C 6.7 °C 1020.9 hPa Calm     51% 0 mm 0 W/m2
22:54 16.8 °C 6.6 °C 1020.9 hPa Calm     51% 0 mm 0 W/m2
22:59 16.7 °C 6.6 °C 1020.5 hPa Calm     51% 0 mm 0 W/m2
23:04 16.7 °C 6.5 °C 1020.5 hPa Calm     51% 0 mm 0 W/m2
23:09 16.6 °C 6.6 °C 1020.9 hPa Calm     51.6% 0 mm 0 W/m2
23:14 16.6 °C 6.7 °C 1020.9 hPa Calm     52.1% 0 mm 0 W/m2
23:19 16.5 °C 6.6 °C 1020.9 hPa Calm     52% 0 mm 0 W/m2
23:24 16.4 °C 6.8 °C 1020.9 hPa Calm     52.7% 0 mm 0 W/m2
23:29 16.4 °C 7.2 °C 1020.9 hPa Calm     54.8% 0 mm 0 W/m2
23:34 16.2 °C 7.4 °C 1020.9 hPa Calm     56% 0 mm 0 W/m2
23:39 16.1 °C 7.3 °C 1020.9 hPa Calm     56% 0 mm 0 W/m2
23:44 15.9 °C 7.3 °C 1020.9 hPa Calm     56.5% 0 mm 0 W/m2
23:49 15.8 °C 7.3 °C 1020.5 hPa Calm     57% 0 mm 0 W/m2
23:54 15.7 °C 7.2 °C 1020.9 hPa Calm     57% 0 mm 0 W/m2
23:59 15.7 °C 7.4 °C 1020.9 hPa Calm     57.9% 0 mm 0 W/m2
Hartford County Weather
Compliments of Weather Underground - 2 mb